sensor_id;sensor_type;location;lat;lon;timestamp;temperature;humidity
1277;DHT22;631;51.024;13.826;2022-10-16T00:01:20;15.80;99.90
1277;DHT22;631;51.024;13.826;2022-10-16T00:03:47;15.80;99.90
1277;DHT22;631;51.024;13.826;2022-10-16T00:06:14;15.80;99.90
1277;DHT22;631;51.024;13.826;2022-10-16T00:08:40;15.80;99.90
1277;DHT22;631;51.024;13.826;2022-10-16T00:11:08;15.80;99.90
1277;DHT22;631;51.024;13.826;2022-10-16T00:13:36;15.80;99.90
1277;DHT22;631;51.024;13.826;2022-10-16T00:16:03;15.70;99.90
1277;DHT22;631;51.024;13.826;2022-10-16T00:18:29;15.70;99.90
1277;DHT22;631;51.024;13.826;2022-10-16T00:21:00;15.70;99.90
1277;DHT22;631;51.024;13.826;2022-10-16T00:23:26;15.70;99.90
1277;DHT22;631;51.024;13.826;2022-10-16T00:26:01;15.70;99.90
1277;DHT22;631;51.024;13.826;2022-10-16T00:28:27;15.60;99.90
1277;DHT22;631;51.024;13.826;2022-10-16T00:30:52;15.60;99.90
1277;DHT22;631;51.024;13.826;2022-10-16T00:33:18;15.60;99.90
1277;DHT22;631;51.024;13.826;2022-10-16T00:35:44;15.50;99.90
1277;DHT22;631;51.024;13.826;2022-10-16T00:38:10;15.50;99.90
1277;DHT22;631;51.024;13.826;2022-10-16T00:40:35;15.50;99.90
1277;DHT22;631;51.024;13.826;2022-10-16T00:43:01;15.50;99.90
1277;DHT22;631;51.024;13.826;2022-10-16T00:45:27;15.50;99.90
1277;DHT22;631;51.024;13.826;2022-10-16T00:47:54;15.60;99.90
1277;DHT22;631;51.024;13.826;2022-10-16T00:52:55;15.50;99.90
1277;DHT22;631;51.024;13.826;2022-10-16T00:55:22;15.50;99.90
1277;DHT22;631;51.024;13.826;2022-10-16T00:57:48;15.50;99.90
1277;DHT22;631;51.024;13.826;2022-10-16T01:00:19;15.50;99.90
1277;DHT22;631;51.024;13.826;2022-10-16T01:02:51;15.50;99.90
1277;DHT22;631;51.024;13.826;2022-10-16T01:05:16;15.50;99.90
1277;DHT22;631;51.024;13.826;2022-10-16T01:08:13;15.50;99.90
1277;DHT22;631;51.024;13.826;2022-10-16T01:10:41;15.40;99.90
1277;DHT22;631;51.024;13.826;2022-10-16T01:13:12;15.50;99.90
1277;DHT22;631;51.024;13.826;2022-10-16T01:16:04;15.50;99.90
1277;DHT22;631;51.024;13.826;2022-10-16T01:26:28;15.70;99.90
1277;DHT22;631;51.024;13.826;2022-10-16T01:31:35;15.70;99.90
1277;DHT22;631;51.024;13.826;2022-10-16T01:34:09;15.80;99.90
1277;DHT22;631;51.024;13.826;2022-10-16T01:36:46;15.90;99.90
1277;DHT22;631;51.024;13.826;2022-10-16T01:39:13;15.90;99.90
1277;DHT22;631;51.024;13.826;2022-10-16T01:41:45;16.00;99.90
1277;DHT22;631;51.024;13.826;2022-10-16T01:44:31;16.10;99.90
1277;DHT22;631;51.024;13.826;2022-10-16T01:46:57;16.10;99.90
1277;DHT22;631;51.024;13.826;2022-10-16T01:49:27;16.20;99.90
1277;DHT22;631;51.024;13.826;2022-10-16T01:51:58;16.20;99.90
1277;DHT22;631;51.024;13.826;2022-10-16T01:54:30;16.20;99.90
1277;DHT22;631;51.024;13.826;2022-10-16T01:56:58;16.30;99.90
1277;DHT22;631;51.024;13.826;2022-10-16T01:59:26;16.40;99.90
1277;DHT22;631;51.024;13.826;2022-10-16T02:01:55;16.30;99.90
1277;DHT22;631;51.024;13.826;2022-10-16T02:07:34;16.50;99.90
1277;DHT22;631;51.024;13.826;2022-10-16T02:10:06;16.40;99.90
1277;DHT22;631;51.024;13.826;2022-10-16T02:12:34;16.40;99.90
1277;DHT22;631;51.024;13.826;2022-10-16T02:15:01;16.40;99.90
1277;DHT22;631;51.024;13.826;2022-10-16T02:17:27;16.50;99.90
1277;DHT22;631;51.024;13.826;2022-10-16T02:19:55;16.50;99.90
1277;DHT22;631;51.024;13.826;2022-10-16T02:22:29;16.50;99.90
1277;DHT22;631;51.024;13.826;2022-10-16T02:25:06;16.50;99.90
1277;DHT22;631;51.024;13.826;2022-10-16T02:27:40;16.50;99.90
1277;DHT22;631;51.024;13.826;2022-10-16T02:30:20;16.50;99.90
1277;DHT22;631;51.024;13.826;2022-10-16T02:32:48;16.50;99.90
1277;DHT22;631;51.024;13.826;2022-10-16T02:35:17;16.50;99.90
1277;DHT22;631;51.024;13.826;2022-10-16T02:37:44;16.50;99.90
1277;DHT22;631;51.024;13.826;2022-10-16T02:40:10;16.50;99.90
1277;DHT22;631;51.024;13.826;2022-10-16T02:42:38;16.50;99.90
1277;DHT22;631;51.024;13.826;2022-10-16T02:45:05;16.50;99.90
1277;DHT22;631;51.024;13.826;2022-10-16T02:47:31;16.50;99.90
1277;DHT22;631;51.024;13.826;2022-10-16T02:49:56;16.50;99.90
1277;DHT22;631;51.024;13.826;2022-10-16T02:52:22;16.50;99.90
1277;DHT22;631;51.024;13.826;2022-10-16T02:54:48;16.50;99.90
1277;DHT22;631;51.024;13.826;2022-10-16T02:57:13;16.50;99.90
1277;DHT22;631;51.024;13.826;2022-10-16T02:59:39;16.50;99.90
1277;DHT22;631;51.024;13.826;2022-10-16T03:02:05;16.40;99.90
1277;DHT22;631;51.024;13.826;2022-10-16T03:04:30;16.40;99.90
1277;DHT22;631;51.024;13.826;2022-10-16T03:06:56;16.50;99.90
1277;DHT22;631;51.024;13.826;2022-10-16T03:09:21;16.40;99.90
1277;DHT22;631;51.024;13.826;2022-10-16T03:11:47;16.40;99.90
1277;DHT22;631;51.024;13.826;2022-10-16T03:14:12;16.40;99.90
1277;DHT22;631;51.024;13.826;2022-10-16T03:16:38;16.40;99.90
1277;DHT22;631;51.024;13.826;2022-10-16T03:19:04;16.30;99.90
1277;DHT22;631;51.024;13.826;2022-10-16T03:21:29;16.30;99.90
1277;DHT22;631;51.024;13.826;2022-10-16T03:23:55;16.20;99.90
1277;DHT22;631;51.024;13.826;2022-10-16T03:26:20;16.20;99.90
1277;DHT22;631;51.024;13.826;2022-10-16T03:28:46;16.20;99.90
1277;DHT22;631;51.024;13.826;2022-10-16T03:31:12;16.30;99.90
1277;DHT22;631;51.024;13.826;2022-10-16T03:33:37;16.30;99.90
1277;DHT22;631;51.024;13.826;2022-10-16T03:36:03;16.30;99.90
1277;DHT22;631;51.024;13.826;2022-10-16T03:38:28;16.30;99.90
1277;DHT22;631;51.024;13.826;2022-10-16T03:40:54;16.30;99.90
1277;DHT22;631;51.024;13.826;2022-10-16T03:43:19;16.30;99.90
1277;DHT22;631;51.024;13.826;2022-10-16T03:45:45;16.30;99.90
1277;DHT22;631;51.024;13.826;2022-10-16T03:48:11;16.30;99.90
1277;DHT22;631;51.024;13.826;2022-10-16T03:50:37;16.30;99.90
1277;DHT22;631;51.024;13.826;2022-10-16T03:53:02;16.30;99.90
1277;DHT22;631;51.024;13.826;2022-10-16T03:55:28;16.30;99.90
1277;DHT22;631;51.024;13.826;2022-10-16T03:57:54;16.30;99.90
1277;DHT22;631;51.024;13.826;2022-10-16T04:00:19;16.30;99.90
1277;DHT22;631;51.024;13.826;2022-10-16T04:02:45;16.30;99.90
1277;DHT22;631;51.024;13.826;2022-10-16T04:05:11;16.20;99.90
1277;DHT22;631;51.024;13.826;2022-10-16T04:07:37;16.20;99.90
1277;DHT22;631;51.024;13.826;2022-10-16T04:10:04;16.10;99.90
1277;DHT22;631;51.024;13.826;2022-10-16T04:12:30;16.10;99.90
1277;DHT22;631;51.024;13.826;2022-10-16T04:14:56;16.10;99.90
1277;DHT22;631;51.024;13.826;2022-10-16T04:17:21;16.20;99.90
1277;DHT22;631;51.024;13.826;2022-10-16T04:19:47;16.20;99.90
1277;DHT22;631;51.024;13.826;2022-10-16T04:22:12;16.20;99.90
1277;DHT22;631;51.024;13.826;2022-10-16T04:24:38;16.20;99.90
1277;DHT22;631;51.024;13.826;2022-10-16T04:27:03;16.20;99.90
1277;DHT22;631;51.024;13.826;2022-10-16T04:29:29;16.20;99.90
1277;DHT22;631;51.024;13.826;2022-10-16T04:31:55;16.20;99.90
1277;DHT22;631;51.024;13.826;2022-10-16T04:34:20;16.10;99.90
1277;DHT22;631;51.024;13.826;2022-10-16T04:36:49;16.20;99.90
1277;DHT22;631;51.024;13.826;2022-10-16T04:39:15;16.10;99.90
1277;DHT22;631;51.024;13.826;2022-10-16T04:41:41;16.10;99.90
1277;DHT22;631;51.024;13.826;2022-10-16T04:44:07;16.20;99.90
1277;DHT22;631;51.024;13.826;2022-10-16T04:46:32;16.20;99.90
1277;DHT22;631;51.024;13.826;2022-10-16T04:48:58;16.10;99.90
1277;DHT22;631;51.024;13.826;2022-10-16T04:51:24;16.10;99.90
1277;DHT22;631;51.024;13.826;2022-10-16T04:53:50;16.10;99.90
1277;DHT22;631;51.024;13.826;2022-10-16T04:56:16;16.00;99.90
1277;DHT22;631;51.024;13.826;2022-10-16T04:58:42;16.00;99.90
1277;DHT22;631;51.024;13.826;2022-10-16T05:01:07;16.00;99.90
1277;DHT22;631;51.024;13.826;2022-10-16T05:03:33;16.00;99.90
1277;DHT22;631;51.024;13.826;2022-10-16T05:05:59;15.90;99.90
1277;DHT22;631;51.024;13.826;2022-10-16T05:08:24;16.00;99.90
1277;DHT22;631;51.024;13.826;2022-10-16T05:10:50;16.00;99.90
1277;DHT22;631;51.024;13.826;2022-10-16T05:13:16;16.00;99.90
1277;DHT22;631;51.024;13.826;2022-10-16T05:15:41;16.10;99.90
1277;DHT22;631;51.024;13.826;2022-10-16T05:18:08;16.00;99.90
1277;DHT22;631;51.024;13.826;2022-10-16T05:20:34;16.00;99.90
1277;DHT22;631;51.024;13.826;2022-10-16T05:22:59;16.10;99.90
1277;DHT22;631;51.024;13.826;2022-10-16T05:25:25;16.10;99.90
1277;DHT22;631;51.024;13.826;2022-10-16T05:27:51;16.10;99.90
1277;DHT22;631;51.024;13.826;2022-10-16T05:30:17;16.10;99.90
1277;DHT22;631;51.024;13.826;2022-10-16T05:32:48;16.10;99.90
1277;DHT22;631;51.024;13.826;2022-10-16T05:35:14;16.10;99.90
1277;DHT22;631;51.024;13.826;2022-10-16T05:37:40;16.10;99.90
1277;DHT22;631;51.024;13.826;2022-10-16T05:40:06;16.20;99.90
1277;DHT22;631;51.024;13.826;2022-10-16T05:42:32;16.10;99.90
1277;DHT22;631;51.024;13.826;2022-10-16T05:44:57;16.10;99.90
1277;DHT22;631;51.024;13.826;2022-10-16T05:47:23;16.20;99.90
1277;DHT22;631;51.024;13.826;2022-10-16T05:49:48;16.20;99.90
1277;DHT22;631;51.024;13.826;2022-10-16T05:52:14;16.20;99.90
1277;DHT22;631;51.024;13.826;2022-10-16T05:54:39;16.20;99.90
1277;DHT22;631;51.024;13.826;2022-10-16T05:57:05;16.20;99.90
1277;DHT22;631;51.024;13.826;2022-10-16T05:59:31;16.20;99.90
1277;DHT22;631;51.024;13.826;2022-10-16T06:01:57;16.10;99.90
1277;DHT22;631;51.024;13.826;2022-10-16T06:04:22;16.20;99.90
1277;DHT22;631;51.024;13.826;2022-10-16T06:06:48;16.20;99.90
1277;DHT22;631;51.024;13.826;2022-10-16T06:09:14;16.20;99.90
1277;DHT22;631;51.024;13.826;2022-10-16T06:11:39;16.30;99.90
1277;DHT22;631;51.024;13.826;2022-10-16T06:14:05;16.30;99.90
1277;DHT22;631;51.024;13.826;2022-10-16T06:16:35;16.40;99.90
1277;DHT22;631;51.024;13.826;2022-10-16T06:19:01;16.40;99.90
1277;DHT22;631;51.024;13.826;2022-10-16T06:21:28;16.50;99.90
1277;DHT22;631;51.024;13.826;2022-10-16T06:23:55;16.60;99.90
1277;DHT22;631;51.024;13.826;2022-10-16T06:26:23;16.60;99.90
1277;DHT22;631;51.024;13.826;2022-10-16T06:28:49;16.70;99.90
1277;DHT22;631;51.024;13.826;2022-10-16T06:31:16;16.80;99.90
1277;DHT22;631;51.024;13.826;2022-10-16T06:33:42;16.80;99.90
1277;DHT22;631;51.024;13.826;2022-10-16T06:36:13;16.90;99.90
1277;DHT22;631;51.024;13.826;2022-10-16T06:38:40;16.90;99.90
1277;DHT22;631;51.024;13.826;2022-10-16T06:41:07;16.90;99.90
1277;DHT22;631;51.024;13.826;2022-10-16T06:43:33;17.00;99.90
1277;DHT22;631;51.024;13.826;2022-10-16T06:46:01;17.00;99.90
1277;DHT22;631;51.024;13.826;2022-10-16T06:48:27;17.10;99.90
1277;DHT22;631;51.024;13.826;2022-10-16T06:53:22;17.20;99.90
1277;DHT22;631;51.024;13.826;2022-10-16T06:55:48;17.30;99.90
1277;DHT22;631;51.024;13.826;2022-10-16T06:58:13;17.40;99.90
1277;DHT22;631;51.024;13.826;2022-10-16T07:00:39;17.40;99.90
1277;DHT22;631;51.024;13.826;2022-10-16T07:03:04;17.40;99.90
1277;DHT22;631;51.024;13.826;2022-10-16T07:05:30;17.50;99.90
1277;DHT22;631;51.024;13.826;2022-10-16T07:07:56;17.60;99.90
1277;DHT22;631;51.024;13.826;2022-10-16T07:10:21;17.70;99.90
1277;DHT22;631;51.024;13.826;2022-10-16T07:12:49;17.60;99.90
1277;DHT22;631;51.024;13.826;2022-10-16T07:15:15;17.60;99.90
1277;DHT22;631;51.024;13.826;2022-10-16T07:17:40;17.60;99.90
1277;DHT22;631;51.024;13.826;2022-10-16T07:20:06;17.60;99.90
1277;DHT22;631;51.024;13.826;2022-10-16T07:22:32;17.70;99.90
1277;DHT22;631;51.024;13.826;2022-10-16T07:24:58;17.70;99.90
1277;DHT22;631;51.024;13.826;2022-10-16T07:27:24;17.80;99.90
1277;DHT22;631;51.024;13.826;2022-10-16T07:29:49;17.80;99.90
1277;DHT22;631;51.024;13.826;2022-10-16T07:32:15;17.80;99.90
1277;DHT22;631;51.024;13.826;2022-10-16T07:34:41;17.90;99.90
1277;DHT22;631;51.024;13.826;2022-10-16T07:37:07;17.90;99.90
1277;DHT22;631;51.024;13.826;2022-10-16T07:39:33;17.90;99.90
1277;DHT22;631;51.024;13.826;2022-10-16T07:41:58;17.90;99.90
1277;DHT22;631;51.024;13.826;2022-10-16T07:44:24;17.90;99.90
1277;DHT22;631;51.024;13.826;2022-10-16T07:46:50;18.00;99.90
1277;DHT22;631;51.024;13.826;2022-10-16T07:49:15;18.00;99.90
1277;DHT22;631;51.024;13.826;2022-10-16T07:51:41;18.20;99.90
1277;DHT22;631;51.024;13.826;2022-10-16T07:54:10;18.20;99.90
1277;DHT22;631;51.024;13.826;2022-10-16T07:56:36;18.40;99.90
1277;DHT22;631;51.024;13.826;2022-10-16T07:59:01;18.50;99.90
1277;DHT22;631;51.024;13.826;2022-10-16T08:01:27;18.60;99.90
1277;DHT22;631;51.024;13.826;2022-10-16T08:03:53;18.70;99.90
1277;DHT22;631;51.024;13.826;2022-10-16T08:06:20;18.80;99.90
1277;DHT22;631;51.024;13.826;2022-10-16T08:08:46;19.00;99.90
1277;DHT22;631;51.024;13.826;2022-10-16T08:11:11;18.90;99.90
1277;DHT22;631;51.024;13.826;2022-10-16T08:13:37;18.90;99.90
1277;DHT22;631;51.024;13.826;2022-10-16T08:16:03;19.10;99.90
1277;DHT22;631;51.024;13.826;2022-10-16T08:18:33;19.20;99.90
1277;DHT22;631;51.024;13.826;2022-10-16T08:20:59;19.40;99.90
1277;DHT22;631;51.024;13.826;2022-10-16T08:23:26;19.40;99.90
1277;DHT22;631;51.024;13.826;2022-10-16T08:25:55;19.50;99.90
1277;DHT22;631;51.024;13.826;2022-10-16T08:28:22;19.60;99.90
1277;DHT22;631;51.024;13.826;2022-10-16T08:30:48;19.70;99.90
1277;DHT22;631;51.024;13.826;2022-10-16T08:33:14;19.90;99.90
1277;DHT22;631;51.024;13.826;2022-10-16T08:35:40;20.00;99.90
1277;DHT22;631;51.024;13.826;2022-10-16T08:38:06;20.20;99.90
1277;DHT22;631;51.024;13.826;2022-10-16T08:40:33;20.40;99.90
1277;DHT22;631;51.024;13.826;2022-10-16T08:43:24;20.50;99.90
1277;DHT22;631;51.024;13.826;2022-10-16T08:46:21;20.60;99.90
1277;DHT22;631;51.024;13.826;2022-10-16T08:48:54;20.70;99.90
1277;DHT22;631;51.024;13.826;2022-10-16T08:51:35;20.80;99.90
1277;DHT22;631;51.024;13.826;2022-10-16T08:54:03;21.00;99.90
1277;DHT22;631;51.024;13.826;2022-10-16T08:56:29;21.20;99.90
1277;DHT22;631;51.024;13.826;2022-10-16T08:58:58;21.30;99.90
1277;DHT22;631;51.024;13.826;2022-10-16T09:01:32;21.40;99.90
1277;DHT22;631;51.024;13.826;2022-10-16T09:10:06;22.90;99.90
1277;DHT22;631;51.024;13.826;2022-10-16T09:12:15;23.20;99.90
1277;DHT22;631;51.024;13.826;2022-10-16T09:14:55;23.60;99.90
1277;DHT22;631;51.024;13.826;2022-10-16T09:20:24;24.20;99.90
1277;DHT22;631;51.024;13.826;2022-10-16T09:25:30;25.60;96.80
1277;DHT22;631;51.024;13.826;2022-10-16T09:27:56;26.00;95.30
1277;DHT22;631;51.024;13.826;2022-10-16T09:30:22;26.20;94.80
1277;DHT22;631;51.024;13.826;2022-10-16T09:32:52;26.50;93.40
1277;DHT22;631;51.024;13.826;2022-10-16T09:35:26;26.70;92.00
1277;DHT22;631;51.024;13.826;2022-10-16T09:37:54;27.10;91.40
1277;DHT22;631;51.024;13.826;2022-10-16T09:40:28;26.80;90.00
1277;DHT22;631;51.024;13.826;2022-10-16T09:43:46;26.50;91.20
1277;DHT22;631;51.024;13.826;2022-10-16T09:48:26;26.10;91.40
1277;DHT22;631;51.024;13.826;2022-10-16T09:50:57;26.00;92.00
1277;DHT22;631;51.024;13.826;2022-10-16T09:53:22;25.70;92.40
1277;DHT22;631;51.024;13.826;2022-10-16T09:55:52;25.40;92.90
1277;DHT22;631;51.024;13.826;2022-10-16T09:58:21;25.40;93.70
1277;DHT22;631;51.024;13.826;2022-10-16T10:00:50;25.20;93.40
1277;DHT22;631;51.024;13.826;2022-10-16T10:03:38;24.90;93.70
1277;DHT22;631;51.024;13.826;2022-10-16T10:09:29;25.20;94.20
1277;DHT22;631;51.024;13.826;2022-10-16T10:11:56;25.30;94.00
1277;DHT22;631;51.024;13.826;2022-10-16T10:14:27;25.40;93.60
1277;DHT22;631;51.024;13.826;2022-10-16T10:35:45;25.10;95.00
1277;DHT22;631;51.024;13.826;2022-10-16T10:41:18;25.60;93.70
1277;DHT22;631;51.024;13.826;2022-10-16T10:46:41;25.90;92.90
1277;DHT22;631;51.024;13.826;2022-10-16T10:57:28;25.90;92.10
1277;DHT22;631;51.024;13.826;2022-10-16T11:00:03;26.10;91.60
1277;DHT22;631;51.024;13.826;2022-10-16T11:07:43;25.80;89.00
1277;DHT22;631;51.024;13.826;2022-10-16T11:10:24;25.80;90.50
1277;DHT22;631;51.024;13.826;2022-10-16T11:12:56;25.70;90.90
1277;DHT22;631;51.024;13.826;2022-10-16T11:15:32;25.70;90.00
1277;DHT22;631;51.024;13.826;2022-10-16T11:18:07;25.50;89.80
1277;DHT22;631;51.024;13.826;2022-10-16T11:20:42;24.90;89.80
1277;DHT22;631;51.024;13.826;2022-10-16T11:23:35;24.90;91.30
1277;DHT22;631;51.024;13.826;2022-10-16T11:26:08;24.70;91.60
1277;DHT22;631;51.024;13.826;2022-10-16T11:28:53;24.50;91.70
1277;DHT22;631;51.024;13.826;2022-10-16T11:31:46;24.30;92.80
1277;DHT22;631;51.024;13.826;2022-10-16T11:34:38;24.10;91.70
1277;DHT22;631;51.024;13.826;2022-10-16T11:37:32;24.00;92.60
1277;DHT22;631;51.024;13.826;2022-10-16T11:42:58;24.40;91.80
1277;DHT22;631;51.024;13.826;2022-10-16T11:45:44;24.30;91.80
1277;DHT22;631;51.024;13.826;2022-10-16T11:48:33;24.20;92.50
1277;DHT22;631;51.024;13.826;2022-10-16T11:51:14;24.20;91.20
1277;DHT22;631;51.024;13.826;2022-10-16T11:53:56;24.10;91.20
1277;DHT22;631;51.024;13.826;2022-10-16T11:56:22;24.00;91.60
1277;DHT22;631;51.024;13.826;2022-10-16T11:59:01;24.00;92.00
1277;DHT22;631;51.024;13.826;2022-10-16T12:01:44;24.50;92.20
1277;DHT22;631;51.024;13.826;2022-10-16T12:04:34;25.50;89.20
1277;DHT22;631;51.024;13.826;2022-10-16T12:07:14;26.20;83.60
1277;DHT22;631;51.024;13.826;2022-10-16T12:09:41;26.20;81.40
1277;DHT22;631;51.024;13.826;2022-10-16T12:12:46;25.90;82.10
1277;DHT22;631;51.024;13.826;2022-10-16T12:15:29;25.10;85.80
1277;DHT22;631;51.024;13.826;2022-10-16T12:17:55;25.20;86.20
1277;DHT22;631;51.024;13.826;2022-10-16T12:20:28;25.70;83.80
1277;DHT22;631;51.024;13.826;2022-10-16T12:22:58;26.50;80.70
1277;DHT22;631;51.024;13.826;2022-10-16T12:25:31;26.60;78.80
1277;DHT22;631;51.024;13.826;2022-10-16T12:28:20;26.50;76.80
1277;DHT22;631;51.024;13.826;2022-10-16T12:31:03;26.40;77.60
1277;DHT22;631;51.024;13.826;2022-10-16T12:33:58;26.10;78.30
1277;DHT22;631;51.024;13.826;2022-10-16T12:36:30;25.70;78.90
1277;DHT22;631;51.024;13.826;2022-10-16T12:38:56;25.40;80.20
1277;DHT22;631;51.024;13.826;2022-10-16T12:41:33;25.20;81.50
1277;DHT22;631;51.024;13.826;2022-10-16T12:44:00;24.90;82.20
1277;DHT22;631;51.024;13.826;2022-10-16T12:51:52;24.20;86.20
1277;DHT22;631;51.024;13.826;2022-10-16T12:54:38;24.00;88.20
1277;DHT22;631;51.024;13.826;2022-10-16T13:08:43;25.20;84.20
1277;DHT22;631;51.024;13.826;2022-10-16T13:11:29;25.50;83.60
1277;DHT22;631;51.024;13.826;2022-10-16T13:14:11;25.50;83.10
1277;DHT22;631;51.024;13.826;2022-10-16T13:22:50;25.10;81.70
1277;DHT22;631;51.024;13.826;2022-10-16T13:25:45;24.80;84.50
1277;DHT22;631;51.024;13.826;2022-10-16T13:28:16;24.70;84.70
1277;DHT22;631;51.024;13.826;2022-10-16T13:30:51;24.50;85.80
1277;DHT22;631;51.024;13.826;2022-10-16T13:33:30;24.40;86.90
1277;DHT22;631;51.024;13.826;2022-10-16T13:35:57;24.40;85.90
1277;DHT22;631;51.024;13.826;2022-10-16T13:38:28;24.60;86.20
1277;DHT22;631;51.024;13.826;2022-10-16T13:40:56;24.70;87.30
1277;DHT22;631;51.024;13.826;2022-10-16T13:43:47;25.10;87.60
1277;DHT22;631;51.024;13.826;2022-10-16T13:46:16;25.30;85.80
1277;DHT22;631;51.024;13.826;2022-10-16T13:48:42;25.30;85.60
1277;DHT22;631;51.024;13.826;2022-10-16T13:51:18;25.20;84.60
1277;DHT22;631;51.024;13.826;2022-10-16T13:53:45;25.20;84.80
1277;DHT22;631;51.024;13.826;2022-10-16T13:56:19;25.10;87.50
1277;DHT22;631;51.024;13.826;2022-10-16T13:58:45;25.20;86.90
1277;DHT22;631;51.024;13.826;2022-10-16T14:01:18;25.20;85.30
1277;DHT22;631;51.024;13.826;2022-10-16T14:03:45;25.00;87.90
1277;DHT22;631;51.024;13.826;2022-10-16T14:06:17;24.80;88.30
1277;DHT22;631;51.024;13.826;2022-10-16T14:08:45;24.40;90.20
1277;DHT22;631;51.024;13.826;2022-10-16T14:11:12;24.00;91.10
1277;DHT22;631;51.024;13.826;2022-10-16T14:13:45;23.90;92.10
1277;DHT22;631;51.024;13.826;2022-10-16T14:16:31;23.70;93.10
1277;DHT22;631;51.024;13.826;2022-10-16T14:19:03;23.60;94.50
1277;DHT22;631;51.024;13.826;2022-10-16T14:21:32;23.50;95.90
1277;DHT22;631;51.024;13.826;2022-10-16T14:23:58;23.50;97.20
1277;DHT22;631;51.024;13.826;2022-10-16T14:26:26;23.40;98.10
1277;DHT22;631;51.024;13.826;2022-10-16T14:29:14;23.30;99.60
1277;DHT22;631;51.024;13.826;2022-10-16T14:31:40;23.30;99.90
1277;DHT22;631;51.024;13.826;2022-10-16T14:34:35;23.20;99.90
1277;DHT22;631;51.024;13.826;2022-10-16T14:37:10;23.10;99.90
1277;DHT22;631;51.024;13.826;2022-10-16T14:39:39;23.10;99.90
1277;DHT22;631;51.024;13.826;2022-10-16T14:42:14;23.20;99.90
1277;DHT22;631;51.024;13.826;2022-10-16T14:44:42;23.10;99.90
1277;DHT22;631;51.024;13.826;2022-10-16T14:47:11;23.10;99.90
1277;DHT22;631;51.024;13.826;2022-10-16T14:49:38;23.10;99.90
1277;DHT22;631;51.024;13.826;2022-10-16T14:52:09;23.10;99.90
1277;DHT22;631;51.024;13.826;2022-10-16T14:54:35;23.00;99.90
1277;DHT22;631;51.024;13.826;2022-10-16T14:57:01;22.90;99.90
1277;DHT22;631;51.024;13.826;2022-10-16T14:59:35;22.90;99.90
1277;DHT22;631;51.024;13.826;2022-10-16T15:02:28;22.90;99.90
1277;DHT22;631;51.024;13.826;2022-10-16T15:04:55;22.90;99.90
1277;DHT22;631;51.024;13.826;2022-10-16T15:07:21;22.90;99.90
1277;DHT22;631;51.024;13.826;2022-10-16T15:09:47;22.90;99.90
1277;DHT22;631;51.024;13.826;2022-10-16T15:12:12;22.90;99.90
1277;DHT22;631;51.024;13.826;2022-10-16T15:14:38;22.90;99.90
1277;DHT22;631;51.024;13.826;2022-10-16T15:17:03;22.80;99.90
1277;DHT22;631;51.024;13.826;2022-10-16T15:19:29;22.80;99.90
1277;DHT22;631;51.024;13.826;2022-10-16T15:21:55;22.80;99.90
1277;DHT22;631;51.024;13.826;2022-10-16T15:24:21;22.80;99.90
1277;DHT22;631;51.024;13.826;2022-10-16T15:26:46;22.70;99.90
1277;DHT22;631;51.024;13.826;2022-10-16T15:29:12;22.60;99.90
1277;DHT22;631;51.024;13.826;2022-10-16T15:31:38;22.60;99.90
1277;DHT22;631;51.024;13.826;2022-10-16T15:34:04;22.60;99.90
1277;DHT22;631;51.024;13.826;2022-10-16T15:36:36;22.50;99.90
1277;DHT22;631;51.024;13.826;2022-10-16T15:39:22;22.50;99.90
1277;DHT22;631;51.024;13.826;2022-10-16T15:41:48;22.30;99.90
1277;DHT22;631;51.024;13.826;2022-10-16T15:44:18;22.30;99.90
1277;DHT22;631;51.024;13.826;2022-10-16T15:46:45;22.10;99.90
1277;DHT22;631;51.024;13.826;2022-10-16T15:49:11;22.00;99.90
1277;DHT22;631;51.024;13.826;2022-10-16T15:51:41;21.90;99.90
1277;DHT22;631;51.024;13.826;2022-10-16T15:54:07;21.80;99.90
1277;DHT22;631;51.024;13.826;2022-10-16T15:56:32;21.70;99.90
1277;DHT22;631;51.024;13.826;2022-10-16T15:59:01;21.60;99.90
1277;DHT22;631;51.024;13.826;2022-10-16T16:01:27;21.40;99.90
1277;DHT22;631;51.024;13.826;2022-10-16T16:03:55;21.30;99.90
1277;DHT22;631;51.024;13.826;2022-10-16T16:06:21;21.20;99.90
1277;DHT22;631;51.024;13.826;2022-10-16T16:08:49;21.20;99.90
1277;DHT22;631;51.024;13.826;2022-10-16T16:11:18;21.00;99.90
1277;DHT22;631;51.024;13.826;2022-10-16T16:13:43;20.90;99.90
1277;DHT22;631;51.024;13.826;2022-10-16T16:16:12;20.80;99.90
1277;DHT22;631;51.024;13.826;2022-10-16T16:18:38;20.60;99.90
1277;DHT22;631;51.024;13.826;2022-10-16T16:21:04;20.50;99.90
1277;DHT22;631;51.024;13.826;2022-10-16T16:23:30;20.30;99.90
1277;DHT22;631;51.024;13.826;2022-10-16T16:28:28;20.00;99.90
1277;DHT22;631;51.024;13.826;2022-10-16T16:30:54;19.90;99.90
1277;DHT22;631;51.024;13.826;2022-10-16T16:33:19;19.80;99.90
1277;DHT22;631;51.024;13.826;2022-10-16T16:35:45;19.70;99.90
1277;DHT22;631;51.024;13.826;2022-10-16T16:38:10;19.50;99.90
1277;DHT22;631;51.024;13.826;2022-10-16T16:40:36;19.40;99.90
1277;DHT22;631;51.024;13.826;2022-10-16T16:43:01;19.20;99.90
1277;DHT22;631;51.024;13.826;2022-10-16T16:45:27;19.10;99.90
1277;DHT22;631;51.024;13.826;2022-10-16T16:47:53;19.00;99.90
1277;DHT22;631;51.024;13.826;2022-10-16T16:50:18;18.90;99.90
1277;DHT22;631;51.024;13.826;2022-10-16T16:52:44;18.80;99.90
1277;DHT22;631;51.024;13.826;2022-10-16T16:55:09;18.70;99.90
1277;DHT22;631;51.024;13.826;2022-10-16T16:57:35;18.60;99.90
1277;DHT22;631;51.024;13.826;2022-10-16T17:00:01;18.50;99.90
1277;DHT22;631;51.024;13.826;2022-10-16T17:02:26;18.40;99.90
1277;DHT22;631;51.024;13.826;2022-10-16T17:04:52;18.30;99.90
1277;DHT22;631;51.024;13.826;2022-10-16T17:07:18;18.20;99.90
1277;DHT22;631;51.024;13.826;2022-10-16T17:09:44;18.10;99.90
1277;DHT22;631;51.024;13.826;2022-10-16T17:12:09;18.00;99.90
1277;DHT22;631;51.024;13.826;2022-10-16T17:14:35;18.00;99.90
1277;DHT22;631;51.024;13.826;2022-10-16T17:17:00;17.90;99.90
1277;DHT22;631;51.024;13.826;2022-10-16T17:19:26;17.90;99.90
1277;DHT22;631;51.024;13.826;2022-10-16T17:21:52;17.80;99.90
1277;DHT22;631;51.024;13.826;2022-10-16T17:24:18;17.70;99.90
1277;DHT22;631;51.024;13.826;2022-10-16T17:26:45;17.60;99.90
1277;DHT22;631;51.024;13.826;2022-10-16T17:29:14;17.50;99.90
1277;DHT22;631;51.024;13.826;2022-10-16T17:31:40;17.50;99.90
1277;DHT22;631;51.024;13.826;2022-10-16T17:34:08;17.40;99.90
1277;DHT22;631;51.024;13.826;2022-10-16T17:36:36;17.40;99.90
1277;DHT22;631;51.024;13.826;2022-10-16T17:39:05;17.30;99.90
1277;DHT22;631;51.024;13.826;2022-10-16T17:41:32;17.30;99.90
1277;DHT22;631;51.024;13.826;2022-10-16T17:43:57;17.20;99.90
1277;DHT22;631;51.024;13.826;2022-10-16T17:46:24;17.20;99.90
1277;DHT22;631;51.024;13.826;2022-10-16T17:48:51;17.10;99.90
1277;DHT22;631;51.024;13.826;2022-10-16T17:51:25;17.00;99.90
1277;DHT22;631;51.024;13.826;2022-10-16T17:53:54;17.00;99.90
1277;DHT22;631;51.024;13.826;2022-10-16T17:56:20;16.90;99.90
1277;DHT22;631;51.024;13.826;2022-10-16T17:58:50;16.90;99.90